Terminal Aerodrome Forecast
Issued by NWS

Current Version | Previous Version | Text Only | Print | Product List | Glossary On
Versions: 1 2 3 4 5 6 7 8 9 10 11 12 13 14 15 16
000
FTUS46 KMTR 291700
TAFSTS
TAF
KSTS 291734Z 2918/3018 33003KT P6SM FEW200
     FM292300 21005KT P6SM FEW200
     FM300500 VRB03KT 6SM BR FEW200
     FM300900 00000KT 1SM BR BKN003
     FM301100 00000KT 1/2SM FG VV002=

USA.gov is the U.S. government's official web portal to all federal, state and local government web resources and services.